Bristol, Indiana
Current Conditions -  °F | °C
As of 9:53 AM on Monday 24 Nov 2014 (Local Time) from KGSH Reporting Station
Light Rain Light Rain  
Wind Chill: 63°   Ceiling: 1400
Heat Index: 63°   Visibility: 6mi
Dew Point: 51°   Wind: 17mph
Humidity: 65%   Direction: 200°SSW
Pressure: 29.08"   Gusts: NA
Location:  41.72°N, 85.82°W
Report Text: KGSH 241453Z AUTO 20015KT 6SM -RA OVC014 17/11 A2908 RMK AO2 RAB17E28B45 SLP846 P0000 60010 T01720106 55007
Loading
Personal Weather Stations






























Interactive Weather Map New forecast layout! Learn more

10-Day Weather Forecast

Advertisements
Track Severe Weather on mobile